createdAt,value
2019-03-22T00:02:00.057Z,101457.20
2019-03-22T00:04:29.960Z,101468.08
2019-03-22T00:06:59.938Z,101469.05
2019-03-22T00:09:29.832Z,101477.17
2019-03-22T00:11:59.705Z,101489.70
2019-03-22T00:14:29.684Z,101503.61
2019-03-22T00:16:59.656Z,101495.06
2019-03-22T00:19:29.515Z,101496.79
2019-03-22T00:21:59.428Z,101494.58
2019-03-22T00:24:29.351Z,101507.10
2019-03-22T00:26:59.219Z,101517.92
2019-03-22T00:29:29.170Z,101523.13
2019-03-22T00:31:59.044Z,101523.98
2019-03-22T00:34:29.085Z,101524.44
2019-03-22T00:36:59.019Z,101539.93
2019-03-22T00:39:28.976Z,101549.02
2019-03-22T00:41:58.956Z,101556.53
2019-03-22T00:44:28.808Z,101554.03
2019-03-22T00:46:58.689Z,101563.58
2019-03-22T00:49:28.639Z,101579.50
2019-03-22T00:51:58.489Z,101588.55
2019-03-22T00:54:28.406Z,101592.50
2019-03-22T00:56:58.330Z,101605.95
2019-03-22T00:59:28.416Z,101618.95
2019-03-22T01:01:58.288Z,101624.16
2019-03-22T01:04:28.208Z,101636.78
2019-03-22T01:06:58.135Z,101647.63
2019-03-22T01:09:28.123Z,101660.31
2019-03-22T01:11:58.039Z,101664.64
2019-03-22T01:14:27.930Z,101667.22
2019-03-22T01:16:57.863Z,101679.40
2019-03-22T01:19:27.742Z,101672.86
2019-03-22T01:21:57.623Z,101673.64
2019-03-22T01:24:27.499Z,101676.66
2019-03-22T01:26:57.399Z,101676.18
2019-03-22T01:29:27.310Z,101678.39
2019-03-22T01:31:57.238Z,101684.89
2019-03-22T01:34:27.107Z,101690.09
2019-03-22T01:36:57.026Z,101693.60
2019-03-22T01:39:27.269Z,101690.60
2019-03-22T01:41:57.171Z,101694.47
2019-03-22T01:44:27.065Z,101693.13
2019-03-22T01:46:57.020Z,101709.17
2019-03-22T01:49:26.865Z,101707.39
2019-03-22T01:51:56.777Z,101708.31
2019-03-22T01:54:26.713Z,101718.73
2019-03-22T01:56:56.797Z,101468.99
2019-03-22T01:59:26.653Z,101728.73
2019-03-22T02:01:56.695Z,101730.95
2019-03-22T02:04:26.652Z,101740.97
2019-03-22T02:06:56.572Z,101737.99
2019-03-22T02:09:26.557Z,101747.55
2019-03-22T02:11:56.563Z,101757.49
2019-03-22T02:14:26.565Z,101766.14
2019-03-22T02:16:56.566Z,101765.71
2019-03-22T02:19:26.477Z,101764.36
2019-03-22T02:21:56.330Z,101770.36
2019-03-22T02:24:26.326Z,101775.08
2019-03-22T02:26:56.303Z,101784.62
2019-03-22T02:29:26.213Z,101800.63
2019-03-22T02:31:56.240Z,101804.97
2019-03-22T02:34:26.198Z,101812.80
2019-03-22T02:36:56.090Z,101817.56
2019-03-22T02:39:26.101Z,101821.01
2019-03-22T02:41:55.979Z,101818.37
2019-03-22T02:44:25.965Z,101822.31
2019-03-22T02:46:55.884Z,101827.11
2019-03-22T02:49:25.806Z,101829.66
2019-03-22T02:51:55.671Z,101843.50
2019-03-22T02:54:25.578Z,101845.66
2019-03-22T02:56:55.562Z,101850.84
2019-03-22T02:59:25.475Z,101845.23
2019-03-22T03:01:55.425Z,101856.03
2019-03-22T03:04:25.297Z,101860.80
2019-03-22T03:06:55.243Z,101877.70
2019-03-22T03:09:25.224Z,101890.70
2019-03-22T03:11:55.103Z,101889.41
2019-03-22T03:14:25.037Z,101898.52
2019-03-22T03:16:54.963Z,101901.52
2019-03-22T03:19:24.899Z,101911.89
2019-03-22T03:21:54.770Z,101923.56
2019-03-22T03:24:24.705Z,101927.89
2019-03-22T03:26:54.624Z,101937.86
2019-03-22T03:29:24.506Z,101948.66
2019-03-22T03:31:54.468Z,101953.84
2019-03-22T03:34:24.415Z,101961.66
2019-03-22T03:36:54.332Z,101963.41
2019-03-22T03:39:24.220Z,101962.54
2019-03-22T03:41:54.198Z,101966.87
2019-03-22T03:44:24.035Z,101970.38
2019-03-22T03:46:53.965Z,101968.63
2019-03-22T03:49:23.960Z,101974.70
2019-03-22T03:51:53.858Z,101977.70
2019-03-22T03:54:23.744Z,101978.15
2019-03-22T03:56:53.683Z,101976.85
2019-03-22T03:59:23.571Z,101987.66
2019-03-22T04:01:53.455Z,101989.80
2019-03-22T04:04:23.354Z,101994.98
2019-03-22T04:06:53.272Z,101997.14
2019-03-22T04:09:23.194Z,102003.64
2019-03-22T04:11:53.085Z,102010.12
2019-03-22T04:14:23.035Z,102024.37
2019-03-22T04:16:52.995Z,102035.16
2019-03-22T04:19:22.893Z,102042.95
2019-03-22T04:21:52.819Z,102041.22
2019-03-22T04:24:22.694Z,102052.88
2019-03-22T04:26:52.609Z,102052.01
2019-03-22T04:29:22.846Z,102064.09
2019-03-22T04:31:52.717Z,102062.38
2019-03-22T04:34:22.597Z,102076.19
2019-03-22T04:36:52.596Z,102077.47
2019-03-22T04:39:22.568Z,102082.68
2019-03-22T04:41:52.440Z,102098.22
2019-03-22T04:44:22.400Z,102103.39
2019-03-22T04:46:52.767Z,102115.51
2019-03-22T04:49:23.892Z,102120.70
2019-03-22T04:51:55.305Z,102128.04
2019-03-22T04:54:27.315Z,102123.69
2019-03-22T04:56:59.245Z,102134.50
2019-03-22T04:59:29.832Z,102130.20
2019-03-22T05:02:02.245Z,102120.69
2019-03-22T05:04:32.522Z,102133.67
2019-03-22T05:07:02.851Z,102138.41
2019-03-22T05:09:35.514Z,102145.77
2019-03-22T05:12:06.337Z,102151.40
2019-03-22T05:14:39.267Z,102162.19
2019-03-22T05:17:10.376Z,102161.78
2019-03-22T05:19:43.899Z,102160.48
2019-03-22T05:22:15.702Z,102164.80
2019-03-22T05:24:48.081Z,102169.56
2019-03-22T05:27:20.228Z,102168.69
2019-03-22T05:29:51.661Z,102177.77
2019-03-22T05:32:22.314Z,102183.41
2019-03-22T05:34:52.210Z,102191.90
2019-03-22T05:37:22.145Z,102191.02
2019-03-22T05:39:52.017Z,102204.43
2019-03-22T05:42:22.180Z,102204.47
2019-03-22T05:44:52.020Z,102208.33
2019-03-22T05:47:21.917Z,102218.14
2019-03-22T05:49:52.158Z,102210.16
2019-03-22T05:52:22.084Z,102215.36
2019-03-22T05:54:51.979Z,102219.14
2019-03-22T05:57:21.897Z,102216.10
2019-03-22T05:59:51.839Z,102209.97
2019-03-22T06:02:21.696Z,102216.02
2019-03-22T06:04:51.745Z,102216.81
2019-03-22T06:07:21.761Z,102225.95
2019-03-22T06:09:51.683Z,102230.61
2019-03-22T06:12:21.685Z,102229.77
2019-03-22T06:14:51.557Z,102233.91
2019-03-22T06:17:21.593Z,102232.52
2019-03-22T06:19:51.476Z,102233.27
2019-03-22T06:22:21.478Z,102223.68
2019-03-22T06:24:51.446Z,102225.30
2019-03-22T06:27:21.340Z,102228.30
2019-03-22T06:29:54.561Z,102229.66
2019-03-22T06:32:23.024Z,102219.83
2019-03-22T06:34:52.923Z,102223.20
2019-03-22T06:37:22.856Z,102224.73
2019-03-22T06:39:52.798Z,102222.99
2019-03-22T06:42:22.706Z,102228.05
2019-03-22T06:44:52.705Z,102229.66
2019-03-22T06:47:22.640Z,102235.36
2019-03-22T06:49:52.488Z,102240.97
2019-03-22T06:52:22.416Z,102244.94
2019-03-22T06:54:52.353Z,102246.97
2019-03-22T06:57:22.302Z,102249.95
2019-03-22T06:59:52.202Z,102246.23
2019-03-22T07:02:22.207Z,102244.61
2019-03-22T07:04:52.102Z,102238.47
2019-03-22T07:07:22.069Z,102254.52
2019-03-22T07:09:52.056Z,102248.46
2019-03-22T07:12:22.096Z,102258.34
2019-03-22T07:14:52.132Z,102264.42
2019-03-22T07:17:22.414Z,102266.06
2019-03-22T07:19:52.463Z,102271.46
2019-03-22T07:22:22.435Z,102265.38
2019-03-22T07:24:52.495Z,102263.02
2019-03-22T07:27:22.560Z,102268.72
2019-03-22T07:29:52.427Z,102272.33
2019-03-22T07:32:22.481Z,102277.00
2019-03-22T07:34:52.396Z,102292.19
2019-03-22T07:37:22.291Z,102283.91
2019-03-22T07:39:52.196Z,102283.42
2019-03-22T07:42:22.159Z,102283.28
2019-03-22T07:44:52.057Z,102287.63
2019-03-22T07:47:22.132Z,102300.17
2019-03-22T07:49:52.052Z,102290.69
2019-03-22T07:52:22.268Z,102289.68
2019-03-22T07:54:52.204Z,102289.02
2019-03-22T07:57:22.195Z,102299.52
2019-03-22T07:59:52.072Z,102294.43
2019-03-22T08:02:22.013Z,102293.45
2019-03-22T08:04:51.903Z,102298.65
2019-03-22T08:07:21.894Z,102306.05
2019-03-22T08:09:51.853Z,102310.28
2019-03-22T08:12:21.789Z,102313.70
2019-03-22T08:14:51.701Z,102316.34
2019-03-22T08:17:22.168Z,102315.49
2019-03-22T08:19:52.070Z,102321.08
2019-03-22T08:22:21.992Z,102315.75
2019-03-22T08:24:51.964Z,102310.42
2019-03-22T08:27:21.977Z,102308.73
2019-03-22T08:29:51.960Z,102305.27
2019-03-22T08:32:22.094Z,102298.58
2019-03-22T08:34:51.986Z,102299.76
2019-03-22T08:37:21.962Z,102299.97
2019-03-22T08:39:51.878Z,102299.97
2019-03-22T08:42:21.840Z,102300.44
2019-03-22T08:44:51.699Z,102302.50
2019-03-22T08:47:33.114Z,102303.05
2019-03-22T08:49:53.274Z,102303.55
2019-03-22T08:52:23.305Z,102303.91
2019-03-22T08:54:53.240Z,102304.47
2019-03-22T08:57:24.978Z,102310.66
2019-03-22T08:59:55.191Z,102308.42
2019-03-22T09:02:25.112Z,102297.83
2019-03-22T09:04:55.007Z,102300.19
2019-03-22T09:07:25.138Z,102303.99
2019-03-22T09:09:55.062Z,102310.94
2019-03-22T09:12:26.900Z,102313.35
2019-03-22T09:14:56.575Z,102318.76
2019-03-22T09:17:27.523Z,102322.09
2019-03-22T09:19:57.396Z,102327.16
2019-03-22T09:22:27.336Z,102327.56
2019-03-22T09:24:57.320Z,102329.24
2019-03-22T09:27:27.174Z,102333.02
2019-03-22T09:29:57.082Z,102333.69
2019-03-22T09:32:26.994Z,102340.05
2019-03-22T09:34:59.649Z,102328.61
2019-03-22T09:37:28.455Z,102322.19
2019-03-22T09:39:58.490Z,102319.12
2019-03-22T09:42:28.362Z,102323.68
2019-03-22T09:44:58.227Z,102323.87
2019-03-22T09:47:28.186Z,102324.02
2019-03-22T09:49:58.100Z,102329.50
2019-03-22T09:52:27.974Z,102317.45
2019-03-22T09:54:58.085Z,102325.85
2019-03-22T09:57:27.992Z,102315.48
2019-03-22T09:59:57.873Z,102317.20
2019-03-22T10:02:27.990Z,102310.05
2019-03-22T10:04:57.874Z,102314.57
2019-03-22T10:07:27.854Z,102312.88
2019-03-22T10:09:58.007Z,102309.45
2019-03-22T10:12:27.954Z,102306.78
2019-03-22T10:14:58.059Z,102307.97
2019-03-22T10:17:28.005Z,102305.22
2019-03-22T10:19:57.966Z,102307.42
2019-03-22T10:22:27.842Z,102313.39
2019-03-22T10:24:57.963Z,102311.86
2019-03-22T10:27:27.901Z,102314.30
2019-03-22T10:29:57.914Z,102317.29
2019-03-22T10:32:27.890Z,102302.41
2019-03-22T10:34:57.829Z,102302.16
2019-03-22T10:37:27.742Z,102295.74
2019-03-22T10:39:57.756Z,102306.24
2019-03-22T10:42:27.795Z,102306.25
2019-03-22T10:44:57.800Z,102292.62
2019-03-22T10:47:27.912Z,102301.44
2019-03-22T10:49:57.825Z,102303.84
2019-03-22T10:52:27.720Z,102302.59
2019-03-22T10:54:57.697Z,102297.67
2019-03-22T10:57:27.843Z,102296.53
2019-03-22T10:59:57.833Z,102285.26
2019-03-22T11:02:27.762Z,102285.40
2019-03-22T11:04:57.733Z,102276.55
2019-03-22T11:07:27.651Z,102271.28
2019-03-22T11:09:57.679Z,102274.33
2019-03-22T11:12:27.743Z,102277.78
2019-03-22T11:14:57.589Z,102279.02
2019-03-22T11:17:27.640Z,102268.63
2019-03-22T11:19:57.685Z,102260.96
2019-03-22T11:22:27.637Z,102246.64
2019-03-22T11:24:57.690Z,102245.09
2019-03-22T11:27:27.717Z,102245.58
2019-03-22T11:29:57.566Z,102240.91
2019-03-22T11:32:27.528Z,102233.45
2019-03-22T11:34:57.451Z,102230.19
2019-03-22T11:37:27.386Z,102227.61
2019-03-22T11:39:57.369Z,102225.72
2019-03-22T11:42:27.291Z,102220.24
2019-03-22T11:44:57.311Z,102215.22
2019-03-22T11:47:27.312Z,102217.42
2019-03-22T11:49:57.284Z,102214.12
2019-03-22T11:52:27.163Z,102223.55
2019-03-22T11:54:57.026Z,102220.28
2019-03-22T11:57:27.165Z,102209.98
2019-03-22T11:59:57.073Z,102206.36
2019-03-22T12:02:26.972Z,102212.23
2019-03-22T12:04:56.963Z,102211.05
2019-03-22T12:07:26.890Z,102204.99
2019-03-22T12:09:56.749Z,102192.11
2019-03-22T12:12:26.721Z,102187.69
2019-03-22T12:14:56.665Z,102179.61
2019-03-22T12:17:26.587Z,102187.73
2019-03-22T12:19:56.458Z,102175.53
2019-03-22T12:22:26.510Z,102160.95
2019-03-22T12:24:56.382Z,102161.28
2019-03-22T12:27:36.116Z,102158.73
2019-03-22T12:29:58.136Z,102160.79
2019-03-22T12:32:32.224Z,102159.58
2019-03-22T12:34:59.589Z,102149.22
2019-03-22T12:37:29.485Z,102142.63
2019-03-22T12:39:59.460Z,102145.66
2019-03-22T12:42:29.421Z,102131.00
2019-03-22T12:44:59.536Z,102129.12
2019-03-22T12:47:29.430Z,102112.30
2019-03-22T12:49:59.330Z,102109.41
2019-03-22T12:52:31.305Z,102100.20
2019-03-22T12:55:00.871Z,102087.08
2019-03-22T12:57:30.772Z,102083.02
2019-03-22T13:00:00.653Z,102077.84
2019-03-22T13:02:30.617Z,102073.23
2019-03-22T13:05:00.533Z,102060.72
2019-03-22T13:07:30.506Z,102056.39
2019-03-22T13:10:00.498Z,102059.44
2019-03-22T13:12:30.467Z,102059.93
2019-03-22T13:15:00.360Z,102052.27
2019-03-22T13:17:30.306Z,102051.14
2019-03-22T13:20:00.355Z,102043.81
2019-03-22T13:22:30.345Z,102026.97
2019-03-22T13:25:00.337Z,102018.73
2019-03-22T13:27:30.360Z,102001.41
2019-03-22T13:30:00.427Z,101990.26
2019-03-22T13:32:30.346Z,101992.03
2019-03-22T13:35:00.424Z,101982.02
2019-03-22T13:37:30.290Z,101968.73
2019-03-22T13:40:00.334Z,101973.45
2019-03-22T13:42:30.415Z,101968.41
2019-03-22T13:45:00.365Z,101967.47
2019-03-22T13:47:30.235Z,101969.03
2019-03-22T13:50:00.346Z,101957.31
2019-03-22T13:52:30.324Z,101952.42
2019-03-22T13:55:00.323Z,101947.02
2019-03-22T13:57:30.219Z,101946.30
2019-03-22T14:00:00.272Z,101938.17
2019-03-22T14:02:30.268Z,101934.01
2019-03-22T14:05:00.316Z,101939.14
2019-03-22T14:07:30.387Z,101939.70
2019-03-22T14:10:00.509Z,101937.29
2019-03-22T14:12:37.052Z,101935.42
2019-03-22T14:15:02.010Z,101937.67
2019-03-22T14:17:31.968Z,101927.61
2019-03-22T14:20:10.800Z,101918.24
2019-03-22T14:22:33.598Z,101913.28
2019-03-22T14:25:03.547Z,101900.58
2019-03-22T14:27:33.446Z,101891.91
2019-03-22T14:30:03.343Z,101887.64
2019-03-22T14:32:33.319Z,101871.92
2019-03-22T14:35:03.307Z,101876.60
2019-03-22T14:37:33.217Z,101865.89
2019-03-22T14:40:03.154Z,101869.04
2019-03-22T14:42:33.089Z,101860.30
2019-03-22T14:45:02.969Z,101864.29
2019-03-22T14:47:32.924Z,101861.36
2019-03-22T14:50:02.893Z,101857.25
2019-03-22T14:52:32.840Z,101849.35
2019-03-22T14:55:03.077Z,101834.28
2019-03-22T14:57:32.977Z,101837.42
2019-03-22T15:00:02.959Z,101829.83
2019-03-22T15:02:32.805Z,101826.77
2019-03-22T15:05:02.756Z,101825.88
2019-03-22T15:07:32.639Z,101823.42
2019-03-22T15:10:02.689Z,101814.23
2019-03-22T15:12:32.615Z,101811.03
2019-03-22T15:15:10.468Z,101804.98
2019-03-22T15:17:59.338Z,101797.82
2019-03-22T15:21:06.169Z,101800.91
2019-03-22T15:24:02.969Z,101793.09
2019-03-22T15:26:49.863Z,101792.77
2019-03-22T15:29:46.154Z,101783.02
2019-03-22T15:32:32.495Z,101779.73
2019-03-22T15:35:20.200Z,101772.02
2019-03-22T15:38:15.378Z,101762.75
2019-03-22T15:40:45.305Z,101748.41
2019-03-22T15:43:15.233Z,101740.15
2019-03-22T15:45:45.237Z,101735.06
2019-03-22T15:48:15.153Z,101718.20
2019-03-22T15:50:45.075Z,101726.88
2019-03-22T15:53:14.939Z,101717.68
2019-03-22T15:55:45.130Z,101716.88
2019-03-22T15:58:15.120Z,101715.95
2019-03-22T16:00:45.019Z,101708.72
2019-03-22T16:03:15.017Z,101709.71
2019-03-22T16:05:44.956Z,101702.39
2019-03-22T16:08:14.858Z,101690.49
2019-03-22T16:10:44.799Z,101684.55
2019-03-22T16:13:14.796Z,101680.50
2019-03-22T16:15:44.690Z,101671.85
2019-03-22T16:18:14.640Z,101671.96
2019-03-22T16:20:44.604Z,101664.26
2019-03-22T16:23:14.636Z,101658.61
2019-03-22T16:25:44.502Z,101647.35
2019-03-22T16:28:14.443Z,101650.60
2019-03-22T16:30:44.527Z,101641.34
2019-03-22T16:33:14.398Z,101638.31
2019-03-22T16:35:44.358Z,101639.66
2019-03-22T16:38:14.340Z,101622.92
2019-03-22T16:40:44.544Z,101619.81
2019-03-22T16:43:14.411Z,101613.19
2019-03-22T16:45:44.379Z,101610.57
2019-03-22T16:48:14.247Z,101613.50
2019-03-22T16:50:44.250Z,101611.83
2019-03-22T16:53:14.315Z,101601.56
2019-03-22T16:55:44.174Z,101597.27
2019-03-22T16:58:14.103Z,101593.19
2019-03-22T17:00:44.271Z,101589.02
2019-03-22T17:03:14.415Z,101580.02
2019-03-22T17:05:44.420Z,101559.33
2019-03-22T17:08:14.562Z,101561.05
2019-03-22T17:10:44.538Z,101555.95
2019-03-22T17:13:14.399Z,101553.53
2019-03-22T17:15:44.303Z,101548.39
2019-03-22T17:18:14.453Z,101552.52
2019-03-22T17:20:44.412Z,101547.93
2019-03-22T17:23:14.309Z,101536.92
2019-03-22T17:25:46.465Z,101536.23
2019-03-22T17:28:16.462Z,101519.47
2019-03-22T17:30:46.380Z,101518.81
2019-03-22T17:33:16.321Z,101514.63
2019-03-22T17:35:46.323Z,101505.52
2019-03-22T17:38:16.268Z,101500.12
2019-03-22T17:40:46.198Z,101498.73
2019-03-22T17:43:16.109Z,101495.14
2019-03-22T17:45:45.993Z,101474.05
2019-03-22T17:48:16.069Z,101468.38
2019-03-22T17:50:45.959Z,101461.06
2019-03-22T17:53:15.835Z,101444.63
2019-03-22T17:55:45.751Z,101428.62
2019-03-22T17:58:15.717Z,101434.53
2019-03-22T18:00:46.435Z,101431.59
2019-03-22T18:03:16.309Z,101428.16
2019-03-22T18:05:46.241Z,101419.62
2019-03-22T18:08:16.203Z,101429.21
2019-03-22T18:10:46.093Z,101426.94
2019-03-22T18:13:16.048Z,101420.70
2019-03-22T18:15:45.990Z,101422.72
2019-03-22T18:18:15.851Z,101410.70
2019-03-22T18:20:45.846Z,101407.13
2019-03-22T18:23:15.755Z,101403.56
2019-03-22T18:25:45.670Z,101395.95
2019-03-22T18:28:15.632Z,101399.08
2019-03-22T18:30:45.500Z,101395.46
2019-03-22T18:33:15.383Z,101400.13
2019-03-22T18:35:45.321Z,101393.52
2019-03-22T18:38:15.348Z,101386.48
2019-03-22T18:40:45.226Z,101389.95
2019-03-22T18:43:15.170Z,101373.02
2019-03-22T18:45:45.113Z,101370.47
2019-03-22T18:48:14.979Z,101357.75
2019-03-22T18:50:44.900Z,101343.14
2019-03-22T18:53:14.827Z,101337.20
2019-03-22T18:55:44.771Z,101324.56
2019-03-22T18:58:14.714Z,101309.75
2019-03-22T19:00:44.596Z,101304.61
2019-03-22T19:03:14.634Z,101294.98
2019-03-22T19:05:44.561Z,101288.50
2019-03-22T19:08:14.441Z,101288.88
2019-03-22T19:10:44.327Z,101269.41
2019-03-22T19:13:14.417Z,101257.70
2019-03-22T19:15:44.317Z,101273.28
2019-03-22T19:18:14.199Z,101267.58
2019-03-22T19:20:44.140Z,101272.23
2019-03-22T19:23:14.291Z,101264.36
2019-03-22T19:25:44.218Z,101259.39
2019-03-22T19:28:14.190Z,101248.53
2019-03-22T19:30:44.088Z,101239.56
2019-03-22T19:33:14.050Z,101229.48
2019-03-22T19:35:43.981Z,101225.56
2019-03-22T19:38:13.985Z,101219.61
2019-03-22T19:40:43.967Z,101208.67
2019-03-22T19:43:13.923Z,101209.17
2019-03-22T19:45:43.906Z,101210.34
2019-03-22T19:48:13.813Z,101208.67
2019-03-22T19:50:43.803Z,101194.56
2019-03-22T19:53:13.750Z,101211.95
2019-03-22T19:55:43.873Z,101212.28
2019-03-22T19:58:13.909Z,101198.05
2019-03-22T20:00:43.962Z,101188.95
2019-03-22T20:03:13.989Z,101181.98
2019-03-22T20:05:43.902Z,101187.73
2019-03-22T20:08:14.019Z,101184.89
2019-03-22T20:10:43.970Z,101169.47
2019-03-22T20:13:13.846Z,101153.91
2019-03-22T20:15:43.832Z,101146.64
2019-03-22T20:18:13.930Z,101133.75
2019-03-22T20:20:43.863Z,101124.89
2019-03-22T20:23:13.723Z,101112.23
2019-03-22T20:25:43.697Z,101097.17
2019-03-22T20:28:13.636Z,101087.78
2019-03-22T20:30:43.959Z,101088.64
2019-03-22T20:33:13.884Z,101076.70
2019-03-22T20:35:43.870Z,101076.91
2019-03-22T20:38:13.801Z,101075.13
2019-03-22T20:40:43.742Z,101076.84
2019-03-22T20:43:13.715Z,101074.04
2019-03-22T20:45:43.598Z,101067.53
2019-03-22T20:48:13.637Z,101067.16
2019-03-22T20:50:43.620Z,101060.91
2019-03-22T20:53:13.540Z,101056.47
2019-03-22T20:55:43.449Z,101053.34
2019-03-22T20:58:13.412Z,101036.70
2019-03-22T21:00:43.325Z,101018.38
2019-03-22T21:03:13.179Z,101014.62
2019-03-22T21:05:43.097Z,100993.72
2019-03-22T21:08:12.945Z,100976.14
2019-03-22T21:10:42.895Z,100966.77
2019-03-22T21:13:12.820Z,100972.38
2019-03-22T21:15:42.798Z,100969.66
2019-03-22T21:18:12.659Z,100967.50
2019-03-22T21:20:42.571Z,100954.39
2019-03-22T21:23:12.516Z,100937.94
2019-03-22T21:25:42.451Z,100931.84
2019-03-22T21:28:12.598Z,100931.02
2019-03-22T21:30:42.474Z,100907.04
2019-03-22T21:33:12.508Z,100902.64
2019-03-22T21:35:42.453Z,100895.31
2019-03-22T21:38:15.754Z,100886.47
2019-03-22T21:40:45.758Z,100874.25
2019-03-22T21:43:15.746Z,100863.16
2019-03-22T21:45:45.718Z,100853.91
2019-03-22T21:48:17.786Z,100844.39
2019-03-22T21:50:47.725Z,100840.79
2019-03-22T21:53:17.680Z,100831.89
2019-03-22T21:55:47.604Z,100818.41
2019-03-22T21:58:17.533Z,100798.66
2019-03-22T22:00:47.609Z,100792.44
2019-03-22T22:03:17.480Z,100779.82
2019-03-22T22:05:48.268Z,100771.00
2019-03-22T22:08:18.196Z,100755.37
2019-03-22T22:10:48.113Z,100745.23
2019-03-22T22:13:19.291Z,100729.95
2019-03-22T22:15:49.177Z,100721.63
2019-03-22T22:18:19.027Z,100698.19
2019-03-22T22:20:49.013Z,100694.45
2019-03-22T22:23:19.046Z,100686.34
2019-03-22T22:25:48.955Z,100673.61
2019-03-22T22:28:18.904Z,100660.78
2019-03-22T22:30:48.847Z,100648.96
2019-03-22T22:33:18.715Z,100639.81
2019-03-22T22:35:58.270Z,100632.77
2019-03-22T22:38:20.274Z,100620.78
2019-03-22T22:40:50.181Z,100631.93
2019-03-22T22:43:20.115Z,100628.50
2019-03-22T22:45:50.099Z,100608.95
2019-03-22T22:48:19.965Z,100611.34
2019-03-22T22:50:49.927Z,100598.80
2019-03-22T22:53:19.878Z,100600.89
2019-03-22T22:55:49.927Z,100574.69
2019-03-22T22:58:19.818Z,100580.83
2019-03-22T23:00:50.032Z,100578.28
2019-03-22T23:03:20.102Z,100580.96
2019-03-22T23:05:49.968Z,100571.22
2019-03-22T23:08:19.917Z,100567.98
2019-03-22T23:10:49.869Z,100554.36
2019-03-22T23:13:19.795Z,100544.70
2019-03-22T23:15:49.803Z,100531.69
2019-03-22T23:18:19.733Z,100527.92
2019-03-22T23:20:49.662Z,100520.15
2019-03-22T23:23:19.535Z,100516.36
2019-03-22T23:25:49.483Z,100501.98
2019-03-22T23:28:19.398Z,100499.08
2019-03-22T23:30:49.260Z,100486.92
2019-03-22T23:33:19.193Z,100488.16
2019-03-22T23:35:49.217Z,100470.53
2019-03-22T23:38:19.094Z,100453.64
2019-03-22T23:40:49.023Z,100451.38
2019-03-22T23:43:19.134Z,100447.69
2019-03-22T23:45:49.025Z,100433.39
2019-03-22T23:48:19.032Z,100421.04
2019-03-22T23:50:48.970Z,100413.33
2019-03-22T23:53:18.820Z,100405.10
2019-03-22T23:55:48.833Z,100396.97
2019-03-22T23:58:18.818Z,100387.11
